Time;durP1;ratioP1;P1;durP2;ratioP2;P2;SDS_P1;SDS_P2;PMS_P1;PMS_P2;Temp;Humidity;BMP_temperature;BMP_pressure;BME280_temperature;BME280_humidity;BME280_pressure;Samples;Min_cycle;Max_cycle;Signal;HPM_P1;HPM_P2
2021/03/03 00:02:13;;;;;;;42.23;24.20;;;4.40;92.50;;;;;;4421158;32;20155;-65
2021/03/03 00:04:42;;;;;;;42.97;23.77;;;4.40;92.70;;;;;;4423320;32;20165;-67
2021/03/03 00:07:11;;;;;;;40.90;22.87;;;4.40;92.90;;;;;;4422837;32;20209;-67
2021/03/03 00:09:39;;;;;;;40.70;23.30;;;4.40;93.00;;;;;;4421393;32;20613;-66
2021/03/03 00:12:11;;;;;;;39.43;21.67;;;4.40;93.20;;;;;;4420941;32;20187;-66
2021/03/03 00:14:41;;;;;;;36.60;21.53;;;4.30;93.30;;;;;;4424285;32;20166;-65
2021/03/03 00:17:08;;;;;;;36.87;21.07;;;4.30;93.30;;;;;;4428651;32;20242;-67
2021/03/03 00:19:36;;;;;;;39.80;20.83;;;4.30;93.10;;;;;;4421537;32;20189;-67
2021/03/03 00:22:06;;;;;;;37.13;20.37;;;4.30;93.40;;;;;;4421996;32;20189;-66
2021/03/03 00:24:32;;;;;;;33.80;19.20;;;4.30;93.20;;;;;;4418300;32;20155;-68
2021/03/03 00:27:10;;;;;;;36.80;20.23;;;4.20;93.40;;;;;;4422187;32;20174;-66
2021/03/03 00:29:44;;;;;;;36.37;20.53;;;4.20;93.50;;;;;;4421410;32;20151;-67
2021/03/03 00:32:12;;;;;;;35.87;20.50;;;4.20;93.40;;;;;;4420625;32;20206;-67
2021/03/03 00:34:38;;;;;;;38.73;19.67;;;4.20;93.50;;;;;;4420569;32;20184;-68
2021/03/03 00:37:06;;;;;;;34.70;19.70;;;4.10;93.70;;;;;;4421921;32;20194;-66
2021/03/03 00:39:32;;;;;;;36.87;20.57;;;4.20;93.90;;;;;;4421081;32;20462;-65
2021/03/03 00:41:58;;;;;;;35.43;19.93;;;4.10;93.70;;;;;;4420158;32;20605;-68
2021/03/03 00:44:26;;;;;;;33.67;19.77;;;4.00;93.50;;;;;;4422049;32;20156;-66
2021/03/03 00:46:55;;;;;;;35.33;19.57;;;4.10;93.50;;;;;;4427220;32;20155;-67
2021/03/03 00:49:21;;;;;;;33.30;18.97;;;4.00;93.50;;;;;;4420436;32;20182;-65
2021/03/03 00:51:52;;;;;;;32.73;18.87;;;4.00;93.30;;;;;;4420893;32;20174;-66
2021/03/03 00:54:20;;;;;;;36.50;20.43;;;4.00;93.60;;;;;;4421951;32;20144;-65
2021/03/03 00:56:52;;;;;;;29.30;19.03;;;4.10;93.70;;;;;;4420624;32;20498;-64
2021/03/03 00:59:18;;;;;;;34.70;19.43;;;4.00;93.60;;;;;;4420787;32;20598;-65
2021/03/03 01:01:45;;;;;;;36.13;19.80;;;4.10;93.60;;;;;;4422226;32;20504;-65
2021/03/03 01:04:11;;;;;;;34.87;19.63;;;4.00;93.70;;;;;;4421816;32;20157;-67
2021/03/03 01:06:37;;;;;;;31.47;18.70;;;4.00;93.60;;;;;;4421361;32;20173;-65
2021/03/03 01:09:04;;;;;;;30.87;19.07;;;4.00;93.70;;;;;;4420309;32;20212;-65
2021/03/03 01:11:31;;;;;;;33.57;18.97;;;4.00;93.60;;;;;;4420565;32;20275;-66
2021/03/03 01:13:58;;;;;;;30.80;18.57;;;4.10;93.80;;;;;;4424015;32;20151;-67
2021/03/03 01:16:24;;;;;;;36.40;19.13;;;3.90;93.70;;;;;;4436621;32;20148;-68
2021/03/03 01:18:50;;;;;;;31.70;19.47;;;4.00;93.70;;;;;;4420351;32;20197;-67
2021/03/03 01:21:18;;;;;;;33.40;19.03;;;3.90;93.80;;;;;;4420091;32;20168;-67
2021/03/03 01:23:45;;;;;;;35.80;19.00;;;3.90;93.70;;;;;;4419621;32;20163;-65
2021/03/03 01:26:11;;;;;;;32.53;17.93;;;3.90;93.70;;;;;;4421385;32;20148;-66
2021/03/03 01:28:38;;;;;;;33.57;18.07;;;3.80;93.80;;;;;;4419602;32;20172;-66
2021/03/03 01:31:04;;;;;;;34.37;19.10;;;3.90;93.70;;;;;;4419919;32;20166;-67
2021/03/03 01:33:31;;;;;;;33.50;17.73;;;3.80;93.10;;;;;;4416266;32;20175;-66
2021/03/03 01:35:58;;;;;;;34.73;18.60;;;3.90;93.50;;;;;;4420520;32;20159;-67
2021/03/03 01:38:28;;;;;;;32.70;19.03;;;3.80;93.70;;;;;;4417797;32;20147;-67
2021/03/03 01:40:55;;;;;;;36.10;18.87;;;3.80;93.80;;;;;;4419284;32;20177;-65
2021/03/03 01:43:22;;;;;;;31.33;17.53;;;3.70;93.90;;;;;;4421462;32;20190;-66
2021/03/03 01:45:54;;;;;;;33.73;18.17;;;3.70;93.80;;;;;;4420075;32;20174;-67
2021/03/03 01:48:21;;;;;;;33.17;19.00;;;3.70;93.90;;;;;;4419787;32;20155;-65
2021/03/03 01:50:49;;;;;;;33.17;19.63;;;3.70;94.10;;;;;;4421221;32;20540;-66
2021/03/03 01:53:16;;;;;;;33.87;19.27;;;3.60;93.70;;;;;;4420586;32;20152;-64
2021/03/03 01:55:43;;;;;;;33.50;19.63;;;3.60;93.80;;;;;;4420769;32;20148;-66
2021/03/03 01:58:10;;;;;;;33.43;18.70;;;3.60;94.10;;;;;;4420602;32;20511;-64
2021/03/03 02:00:36;;;;;;;34.13;18.50;;;3.60;94.30;;;;;;4420146;32;20163;-68
2021/03/03 02:03:10;;;;;;;34.33;19.77;;;3.50;94.20;;;;;;4421417;32;20532;-66
2021/03/03 02:05:36;;;;;;;32.93;18.30;;;3.50;94.30;;;;;;4420506;32;20487;-67
2021/03/03 02:08:10;;;;;;;33.53;19.00;;;3.50;94.20;;;;;;4420363;32;20510;-66
2021/03/03 02:10:42;;;;;;;34.47;18.00;;;3.60;94.60;;;;;;4418113;32;20197;-67
2021/03/03 02:13:15;;;;;;;33.70;19.20;;;3.60;94.30;;;;;;4419254;32;20588;-67
2021/03/03 02:15:45;;;;;;;35.47;20.20;;;3.50;94.40;;;;;;4419320;32;20194;-66
2021/03/03 02:18:13;;;;;;;38.30;19.80;;;3.50;94.50;;;;;;4421161;32;20563;-65
2021/03/03 02:20:51;;;;;;;35.17;20.33;;;3.40;94.30;;;;;;4418638;32;20156;-64
2021/03/03 02:23:27;;;;;;;29.83;18.70;;;3.40;94.30;;;;;;4414009;32;20230;-66
2021/03/03 02:25:55;;;;;;;35.67;19.03;;;3.40;94.20;;;;;;4420084;32;20486;-64
2021/03/03 02:28:22;;;;;;;35.73;19.93;;;3.40;94.30;;;;;;4420360;32;20688;-64
2021/03/03 02:30:48;;;;;;;35.40;19.63;;;3.40;94.50;;;;;;4420268;32;20205;-63
2021/03/03 02:33:18;;;;;;;34.40;19.67;;;3.40;94.80;;;;;;4419781;32;20148;-66
2021/03/03 02:35:46;;;;;;;33.47;19.17;;;3.30;94.50;;;;;;4420513;32;20169;-64
2021/03/03 02:38:13;;;;;;;35.10;19.47;;;3.30;94.60;;;;;;4419326;32;20603;-64
2021/03/03 02:40:42;;;;;;;35.27;19.70;;;3.30;94.40;;;;;;4419728;32;20552;-63
2021/03/03 02:43:12;;;;;;;37.57;19.93;;;3.30;94.50;;;;;;4419232;32;20580;-66
2021/03/03 02:45:41;;;;;;;37.93;19.97;;;3.20;94.60;;;;;;4420071;32;20470;-65
2021/03/03 02:48:09;;;;;;;40.83;20.53;;;3.20;94.70;;;;;;4421713;32;20224;-68
2021/03/03 02:50:36;;;;;;;41.20;20.87;;;3.20;94.80;;;;;;4419499;32;20506;-65
2021/03/03 02:53:05;;;;;;;36.63;19.37;;;3.20;94.80;;;;;;4421956;32;20165;-67
2021/03/03 02:55:34;;;;;;;36.27;19.10;;;3.10;94.50;;;;;;4422292;32;20751;-64
2021/03/03 02:58:03;;;;;;;32.17;18.23;;;3.10;94.50;;;;;;4422199;32;20248;-65
2021/03/03 03:00:32;;;;;;;34.77;20.23;;;3.10;94.60;;;;;;4422465;32;20183;-65
2021/03/03 03:03:04;;;;;;;38.27;19.90;;;3.10;94.80;;;;;;4422248;32;20224;-64
2021/03/03 03:05:35;;;;;;;34.20;19.33;;;3.10;94.90;;;;;;4421816;32;20136;-66
2021/03/03 03:08:11;;;;;;;38.10;20.93;;;3.00;94.70;;;;;;4422219;32;20239;-65
2021/03/03 03:10:38;;;;;;;35.40;19.40;;;3.00;94.60;;;;;;4423054;32;20579;-66
2021/03/03 03:13:09;;;;;;;41.77;21.83;;;3.00;94.80;;;;;;4422434;32;20156;-65
2021/03/03 03:15:38;;;;;;;39.90;20.93;;;3.00;94.90;;;;;;4416021;32;20223;-67
2021/03/03 03:18:09;;;;;;;36.93;18.97;;;3.00;94.90;;;;;;4418948;32;20144;-66
2021/03/03 03:20:42;;;;;;;42.17;19.90;;;3.00;94.80;;;;;;4421704;32;20164;-64
2021/03/03 03:23:14;;;;;;;35.10;20.23;;;2.90;95.00;;;;;;4407606;32;20199;-66
2021/03/03 03:25:41;;;;;;;39.40;21.00;;;2.90;95.00;;;;;;4420736;32;20563;-66
2021/03/03 03:28:08;;;;;;;38.67;20.50;;;2.90;94.60;;;;;;4423078;32;20622;-65
2021/03/03 03:30:36;;;;;;;37.50;19.37;;;2.90;94.70;;;;;;4423054;32;20163;-65
2021/03/03 03:33:03;;;;;;;36.27;20.33;;;2.90;94.90;;;;;;4421706;32;20262;-65
2021/03/03 03:35:29;;;;;;;38.47;21.20;;;2.80;94.90;;;;;;4422519;32;20185;-66
2021/03/03 03:37:57;;;;;;;34.53;18.83;;;2.80;94.90;;;;;;4419248;32;20220;-66
2021/03/03 03:40:24;;;;;;;39.70;21.03;;;2.80;94.90;;;;;;4421559;32;20540;-64
2021/03/03 03:42:54;;;;;;;38.27;20.33;;;2.80;95.00;;;;;;4422916;32;20162;-65
2021/03/03 03:45:30;;;;;;;43.63;21.03;;;2.80;95.00;;;;;;4420797;32;20182;-66
2021/03/03 03:48:01;;;;;;;39.73;21.33;;;2.80;95.00;;;;;;4421531;32;20200;-65
2021/03/03 03:50:28;;;;;;;36.43;20.13;;;2.80;95.00;;;;;;4421821;32;20196;-65
2021/03/03 03:52:56;;;;;;;39.53;21.60;;;2.80;95.00;;;;;;4422003;32;20153;-66
2021/03/03 03:55:32;;;;;;;37.47;20.37;;;2.80;95.10;;;;;;4421563;32;20191;-66
2021/03/03 03:58:00;;;;;;;35.83;20.17;;;2.80;95.10;;;;;;4420363;32;20474;-66
2021/03/03 04:00:29;;;;;;;39.77;20.80;;;2.80;95.00;;;;;;4421985;32;20148;-66
2021/03/03 04:03:01;;;;;;;35.97;20.73;;;2.80;95.00;;;;;;4421864;32;20170;-66
2021/03/03 04:05:31;;;;;;;36.97;20.27;;;2.80;95.00;;;;;;4420612;32;20147;-65
2021/03/03 04:07:58;;;;;;;37.37;19.97;;;2.70;95.10;;;;;;4422306;32;20237;-65
2021/03/03 04:10:26;;;;;;;38.37;21.90;;;2.70;95.20;;;;;;4427689;32;20166;-64
2021/03/03 04:12:55;;;;;;;40.53;21.40;;;2.70;95.20;;;;;;4420930;32;20195;-64
2021/03/03 04:15:26;;;;;;;42.63;21.17;;;2.80;95.20;;;;;;4421030;32;20157;-64
2021/03/03 04:17:53;;;;;;;50.03;23.17;;;2.70;95.20;;;;;;4420894;32;20206;-63
2021/03/03 04:20:22;;;;;;;41.27;21.03;;;2.70;95.20;;;;;;4421105;32;20269;-64
2021/03/03 04:22:50;;;;;;;42.13;21.50;;;2.70;95.00;;;;;;4421133;32;20195;-65
2021/03/03 04:25:27;;;;;;;38.43;20.00;;;2.70;94.90;;;;;;4421322;32;20220;-64
2021/03/03 04:27:57;;;;;;;39.40;21.00;;;2.70;95.10;;;;;;4419934;32;20224;-63
2021/03/03 04:30:27;;;;;;;38.13;21.13;;;2.70;95.20;;;;;;4420551;32;20682;-64
2021/03/03 04:32:53;;;;;;;35.80;20.20;;;2.70;95.10;;;;;;4420905;32;20200;-65
2021/03/03 04:35:21;;;;;;;37.97;20.30;;;2.70;95.10;;;;;;4420573;32;20156;-65
2021/03/03 04:37:47;;;;;;;37.30;19.77;;;2.70;95.10;;;;;;4420833;32;20162;-65
2021/03/03 04:40:17;;;;;;;39.13;21.53;;;2.80;95.10;;;;;;4417840;32;20167;-64
2021/03/03 04:42:43;;;;;;;35.20;19.40;;;2.70;95.00;;;;;;4421524;32;20575;-65
2021/03/03 04:45:11;;;;;;;43.77;21.40;;;2.70;94.90;;;;;;4421774;32;20607;-66
2021/03/03 04:47:42;;;;;;;35.93;20.37;;;2.70;95.00;;;;;;4421320;32;20488;-65
2021/03/03 04:50:09;;;;;;;43.93;22.03;;;2.70;95.00;;;;;;4421011;32;20187;-66
2021/03/03 04:52:37;;;;;;;37.53;21.13;;;2.70;94.90;;;;;;4422131;32;20555;-65
2021/03/03 04:55:06;;;;;;;38.93;20.73;;;2.70;94.90;;;;;;4421796;32;20230;-65
2021/03/03 04:57:34;;;;;;;40.90;20.53;;;2.70;94.90;;;;;;4420716;32;20299;-66
2021/03/03 05:00:01;;;;;;;40.70;21.33;;;2.70;95.00;;;;;;4420460;32;20530;-63
2021/03/03 05:02:27;;;;;;;38.33;20.07;;;2.80;95.00;;;;;;4420403;32;20183;-64
2021/03/03 05:04:55;;;;;;;42.37;21.67;;;2.80;95.00;;;;;;4421300;32;20201;-65
2021/03/03 05:07:21;;;;;;;37.87;21.10;;;2.80;94.90;;;;;;4420254;32;20206;-65
2021/03/03 05:09:48;;;;;;;39.00;20.43;;;2.80;95.00;;;;;;4421838;32;20626;-66
2021/03/03 05:12:16;;;;;;;38.70;20.83;;;2.90;95.10;;;;;;4420519;32;20190;-64
2021/03/03 05:14:42;;;;;;;44.73;20.63;;;2.90;95.00;;;;;;4422040;32;20649;-65
2021/03/03 05:17:09;;;;;;;37.33;20.43;;;2.90;95.00;;;;;;4419826;32;20194;-64
2021/03/03 05:19:35;;;;;;;36.83;20.33;;;2.90;95.00;;;;;;4420914;32;20163;-64
2021/03/03 05:22:08;;;;;;;36.87;20.70;;;2.90;95.00;;;;;;4420180;32;20206;-66
2021/03/03 05:24:35;;;;;;;38.03;21.10;;;2.90;95.00;;;;;;4420385;32;20158;-66
2021/03/03 05:27:05;;;;;;;39.53;20.63;;;2.80;95.00;;;;;;4420791;32;20224;-65
2021/03/03 05:29:34;;;;;;;41.43;20.77;;;2.80;94.90;;;;;;4420212;32;20186;-64
2021/03/03 05:32:00;;;;;;;37.57;20.97;;;2.80;94.90;;;;;;4419334;32;20208;-63
2021/03/03 05:34:26;;;;;;;36.23;19.17;;;2.70;95.20;;;;;;4420302;32;20151;-64
2021/03/03 05:36:58;;;;;;;37.67;20.10;;;2.70;95.10;;;;;;4420158;32;20160;-63
2021/03/03 05:39:27;;;;;;;32.80;20.40;;;2.70;95.10;;;;;;4416389;32;20197;-65
2021/03/03 05:41:53;;;;;;;41.13;21.93;;;2.70;95.10;;;;;;4419793;32;20163;-66
2021/03/03 05:44:22;;;;;;;37.67;20.70;;;2.70;95.10;;;;;;4419972;32;20224;-63
2021/03/03 05:46:51;;;;;;;41.87;20.03;;;2.70;95.20;;;;;;4418724;32;20212;-64
2021/03/03 05:49:24;;;;;;;34.23;19.53;;;2.70;95.10;;;;;;4410618;32;20144;-66
2021/03/03 05:51:53;;;;;;;33.77;20.17;;;2.70;95.10;;;;;;4419742;32;20163;-65
2021/03/03 05:54:25;;;;;;;39.43;20.00;;;2.70;95.20;;;;;;4409896;32;20148;-64
2021/03/03 05:56:51;;;;;;;41.43;21.10;;;2.70;95.20;;;;;;4421277;32;20303;-63
2021/03/03 05:59:18;;;;;;;42.60;23.50;;;2.60;95.20;;;;;;4421097;32;20460;-65
2021/03/03 06:01:56;;;;;;;37.17;21.73;;;2.70;95.20;;;;;;4417252;32;20452;-68
2021/03/03 06:04:23;;;;;;;40.60;22.03;;;2.70;95.20;;;;;;4411730;32;20239;-63
2021/03/03 06:06:51;;;;;;;40.20;21.93;;;2.70;95.30;;;;;;4419630;32;20163;-64
2021/03/03 06:09:19;;;;;;;36.93;21.40;;;2.70;95.30;;;;;;4420880;32;20219;-66
2021/03/03 06:11:50;;;;;;;40.00;21.60;;;2.80;95.20;;;;;;4419763;32;20156;-63
2021/03/03 06:14:24;;;;;;;37.83;21.87;;;2.80;95.30;;;;;;4420120;32;20208;-65
2021/03/03 06:16:53;;;;;;;37.83;20.63;;;2.90;95.30;;;;;;4419576;32;20157;-64
2021/03/03 06:19:20;;;;;;;38.77;20.37;;;2.90;95.20;;;;;;4419526;32;20202;-65
2021/03/03 06:21:46;;;;;;;37.87;21.53;;;3.00;95.10;;;;;;4416916;32;20554;-66
2021/03/03 06:24:13;;;;;;;36.93;21.40;;;3.00;95.10;;;;;;4417435;32;20162;-65
2021/03/03 06:26:55;;;;;;;40.07;22.53;;;3.00;95.10;;;;;;4418672;32;20218;-66
2021/03/03 06:29:22;;;;;;;37.20;21.40;;;3.10;95.10;;;;;;4420635;32;20194;-66
2021/03/03 06:31:50;;;;;;;39.27;21.50;;;3.10;95.00;;;;;;4420019;32;20223;-66
2021/03/03 06:34:18;;;;;;;36.07;21.50;;;3.10;94.90;;;;;;4412726;32;20250;-66
2021/03/03 06:36:46;;;;;;;41.50;22.13;;;3.10;94.80;;;;;;4417792;32;20175;-66
2021/03/03 06:39:32;;;;;;;38.73;22.03;;;3.20;94.80;;;;;;4416394;32;20548;-66
2021/03/03 06:42:00;;;;;;;39.80;22.13;;;3.30;94.70;;;;;;4418806;32;20128;-65
2021/03/03 06:44:44;;;;;;;42.53;23.77;;;3.30;94.70;;;;;;4418675;32;20152;-65
2021/03/03 06:47:13;;;;;;;44.87;23.80;;;3.40;94.60;;;;;;4418321;32;20151;-68
2021/03/03 06:49:40;;;;;;;42.57;22.23;;;3.50;94.60;;;;;;4421514;32;20179;-64
2021/03/03 06:52:10;;;;;;;46.43;24.13;;;3.60;94.50;;;;;;4418447;32;20595;-66
2021/03/03 06:54:37;;;;;;;44.07;22.53;;;3.70;94.30;;;;;;4416629;32;20171;-66
2021/03/03 06:57:08;;;;;;;48.47;24.60;;;3.80;94.10;;;;;;4421227;32;20159;-67
2021/03/03 06:59:36;;;;;;;38.33;22.90;;;4.00;93.90;;;;;;4417278;32;20219;-68
2021/03/03 07:02:09;;;;;;;44.03;24.13;;;4.10;93.80;;;;;;4420981;32;20657;-68
2021/03/03 07:04:55;;;;;;;45.33;23.43;;;4.30;93.50;;;;;;4414611;32;20163;-66
2021/03/03 07:07:31;;;;;;;39.67;22.77;;;4.40;93.40;;;;;;4420445;32;20183;-68
2021/03/03 07:10:08;;;;;;;38.73;22.93;;;4.50;93.10;;;;;;4420856;32;20149;-67
2021/03/03 07:12:48;;;;;;;40.07;22.77;;;4.70;93.00;;;;;;4413759;32;20226;-64
2021/03/03 07:15:17;;;;;;;37.77;22.50;;;4.90;92.80;;;;;;4414787;32;20147;-65
2021/03/03 07:17:54;;;;;;;49.83;23.97;;;4.90;92.60;;;;;;4420338;32;20594;-66
2021/03/03 07:20:24;;;;;;;40.00;24.23;;;5.00;92.50;;;;;;4413622;32;20155;-67
2021/03/03 07:23:03;;;;;;;37.10;22.07;;;5.10;92.30;;;;;;4422444;32;20164;-66
2021/03/03 07:25:36;;;;;;;42.70;24.13;;;5.20;92.10;;;;;;4410109;32;20160;-66
2021/03/03 07:28:24;;;;;;;40.37;23.80;;;5.30;92.30;;;;;;4419659;32;20178;-64
2021/03/03 07:30:51;;;;;;;39.13;23.73;;;5.40;92.20;;;;;;4415527;32;20219;-66
2021/03/03 07:33:32;;;;;;;36.67;23.63;;;5.50;92.20;;;;;;4419091;32;20148;-66
2021/03/03 07:36:10;;;;;;;42.23;22.63;;;5.60;92.10;;;;;;4417453;32;20203;-67
2021/03/03 07:38:47;;;;;;;40.70;22.47;;;5.70;92.00;;;;;;4413420;32;20606;-64
2021/03/03 07:41:25;;;;;;;42.03;21.00;;;5.80;91.80;;;;;;4410898;32;20175;-65
2021/03/03 07:43:54;;;;;;;40.83;23.13;;;5.90;91.90;;;;;;4412964;32;20603;-63
2021/03/03 07:46:26;;;;;;;36.67;23.93;;;6.00;91.90;;;;;;4416992;32;20168;-66
2021/03/03 07:48:53;;;;;;;42.20;24.03;;;6.00;91.80;;;;;;4418048;32;20304;-66
2021/03/03 07:51:22;;;;;;;47.33;24.90;;;6.10;91.90;;;;;;4419508;32;20179;-67
2021/03/03 07:53:52;;;;;;;52.00;25.87;;;6.10;91.80;;;;;;4414822;32;20136;-65
2021/03/03 07:56:21;;;;;;;44.93;24.67;;;6.20;91.70;;;;;;4417576;32;20155;-67
2021/03/03 07:59:05;;;;;;;46.10;24.40;;;6.30;91.60;;;;;;4418312;32;20143;-66
2021/03/03 08:01:45;;;;;;;44.23;24.90;;;6.40;91.60;;;;;;4409701;32;20170;-65
2021/03/03 08:04:34;;;;;;;39.73;23.33;;;6.50;91.60;;;;;;4406809;32;20207;-67
2021/03/03 08:07:24;;;;;;;39.50;24.27;;;6.60;91.60;;;;;;4415637;32;20520;-68
2021/03/03 08:10:24;;;;;;;40.57;24.90;;;6.70;91.50;;;;;;4411252;32;20206;-67
2021/03/03 08:13:05;;;;;;;42.37;23.53;;;7.00;91.20;;;;;;4353509;33;20158;-66
2021/03/03 08:15:39;;;;;;;40.93;24.70;;;7.10;91.00;;;;;;4337281;33;20187;-65
2021/03/03 08:18:20;;;;;;;41.70;24.00;;;7.40;90.60;;;;;;4347722;33;20644;-66
2021/03/03 08:20:48;;;;;;;43.17;23.43;;;7.70;90.30;;;;;;4358725;33;20140;-66
2021/03/03 08:23:44;;;;;;;40.77;24.37;;;8.00;90.00;;;;;;4357804;32;20192;-65
2021/03/03 08:26:33;;;;;;;41.73;22.93;;;8.20;89.40;;;;;;4357029;33;20176;-66
2021/03/03 08:29:17;;;;;;;39.70;23.03;;;8.40;88.70;;;;;;4358140;32;20153;-65
2021/03/03 08:31:44;;;;;;;44.77;24.80;;;8.40;88.20;;;;;;4354436;33;20642;-67
2021/03/03 08:34:12;;;;;;;41.00;24.57;;;8.40;88.30;;;;;;4351808;32;20161;-65
2021/03/03 08:36:58;;;;;;;42.27;25.33;;;8.40;88.30;;;;;;4352640;32;20159;-65
2021/03/03 08:39:34;;;;;;;42.43;24.30;;;8.50;88.50;;;;;;4348892;32;20528;-69
2021/03/03 08:43:03;;;;;;;42.93;24.83;;;8.40;88.30;;;;;;4352402;32;20654;-66
2021/03/03 08:45:29;;;;;;;38.93;22.70;;;8.50;88.30;;;;;;4411400;32;20169;-66
2021/03/03 08:48:09;;;;;;;42.33;24.60;;;8.60;88.00;;;;;;4411198;32;20151;-65
2021/03/03 08:50:45;;;;;;;45.87;24.20;;;8.60;87.80;;;;;;4414960;32;20166;-66
2021/03/03 08:54:18;;;;;;;42.40;24.27;;;8.70;87.80;;;;;;4414493;32;20151;-68
2021/03/03 08:56:54;;;;;;;39.73;24.93;;;8.80;87.80;;;;;;4355477;32;20224;-66
2021/03/03 08:59:46;;;;;;;41.43;24.77;;;8.90;87.40;;;;;;4354628;32;20185;-66
2021/03/03 09:02:21;;;;;;;41.37;25.43;;;9.00;87.20;;;;;;4357179;32;20192;-65
2021/03/03 09:05:20;;;;;;;44.83;25.83;;;9.10;87.20;;;;;;4355430;32;20251;-66
2021/03/03 09:07:56;;;;;;;43.73;26.20;;;9.20;87.00;;;;;;4356130;32;20498;-66
2021/03/03 09:13:27;;;;;;;45.80;27.63;;;9.30;86.90;;;;;;4353965;32;20502;-67
2021/03/03 09:16:07;;;;;;;47.93;27.53;;;9.30;86.80;;;;;;4358861;32;20236;-66
2021/03/03 09:18:48;;;;;;;46.07;26.23;;;9.30;86.80;;;;;;4354871;32;20590;-67
2021/03/03 09:21:16;;;;;;;44.73;26.00;;;9.30;87.20;;;;;;4357174;32;20231;-66
2021/03/03 09:24:10;;;;;;;49.17;27.57;;;9.30;87.20;;;;;;4357135;32;20686;-66
2021/03/03 09:27:07;;;;;;;44.50;27.53;;;9.30;87.40;;;;;;4359409;32;20160;-66
2021/03/03 09:29:39;;;;;;;45.97;26.90;;;9.40;87.30;;;;;;4357383;32;20643;-69
2021/03/03 09:32:09;;;;;;;40.87;25.70;;;9.60;87.10;;;;;;4387814;32;20156;-68
2021/03/03 09:35:03;;;;;;;41.17;26.67;;;9.80;86.70;;;;;;4411944;32;20170;-66
2021/03/03 09:37:45;;;;;;;56.90;29.67;;;9.80;86.20;;;;;;4414650;32;20228;-68
2021/03/03 09:40:34;;;;;;;40.47;25.43;;;10.00;86.10;;;;;;4421388;32;20591;-67
2021/03/03 09:43:31;;;;;;;45.43;27.87;;;10.10;85.70;;;;;;4418258;32;20170;-66
2021/03/03 09:46:53;;;;;;;39.10;25.70;;;10.20;85.20;;;;;;4411698;32;20175;-68
2021/03/03 09:49:41;;;;;;;37.60;24.37;;;10.50;84.70;;;;;;4416544;32;20260;-67
2021/03/03 09:52:10;;;;;;;36.17;24.07;;;10.80;83.40;;;;;;4411335;32;20216;-69
2021/03/03 09:54:50;;;;;;;;;;;;;;;;;;;;;
2021/03/03 09:57:24;;;;;;;32.27;22.60;;;11.10;81.60;;;;;;4414810;32;20208;-66
2021/03/03 10:00:10;;;;;;;37.17;22.23;;;11.50;80.70;;;;;;4414922;32;20156;-68
2021/03/03 10:02:57;;;;;;;37.30;22.93;;;11.50;79.20;;;;;;4418045;32;20165;-66
2021/03/03 10:06:07;;;;;;;32.57;21.63;;;11.10;79.60;;;;;;4415359;32;20569;-66
2021/03/03 10:08:38;;;;;;;25.90;19.40;;;11.00;80.00;;;;;;4414096;32;20146;-65
2021/03/03 10:20:43;;;;;;;27.53;18.80;;;10.40;81.60;;;;;;4252067;33;20206;-66
2021/03/03 10:23:23;;;;;;;26.83;19.70;;;10.10;82.50;;;;;;4252133;33;20218;-69
2021/03/03 10:26:45;;;;;;;25.07;19.17;;;10.30;82.10;;;;;;4253289;33;20636;-66
2021/03/03 10:29:12;;;;;;;24.63;18.77;;;10.50;81.50;;;;;;4252054;33;20192;-68
2021/03/03 10:31:39;;;;;;;24.87;20.03;;;10.80;80.50;;;;;;4252496;33;20161;-68
2021/03/03 10:34:11;;;;;;;27.87;20.73;;;10.50;78.70;;;;;;4253343;33;20342;-67
2021/03/03 10:36:48;;;;;;;26.80;20.57;;;10.30;80.90;;;;;;4253674;33;21254;-66
2021/03/03 10:39:29;;;;;;;25.90;19.57;;;10.20;80.40;;;;;;4252648;33;20156;-69
2021/03/03 10:42:14;;;;;;;29.83;21.37;;;10.30;80.80;;;;;;4237831;33;20545;-68
2021/03/03 10:44:53;;;;;;;27.83;21.37;;;10.30;80.60;;;;;;4251573;33;20306;-68
2021/03/03 10:47:39;;;;;;;27.60;21.07;;;10.40;81.20;;;;;;4265043;33;20179;-66
2021/03/03 10:50:18;;;;;;;37.97;25.10;;;10.60;80.70;;;;;;4272141;33;20160;-67
2021/03/03 10:56:55;;;;;;;35.33;24.07;;;10.60;79.40;;;;;;4259516;33;20257;-66
2021/03/03 10:59:38;;;;;;;34.80;25.97;;;10.90;79.20;;;;;;4287092;33;20597;-67
2021/03/03 11:08:08;;;;;;;42.17;27.53;;;10.20;80.50;;;;;;4226714;33;20244;-67
2021/03/03 11:10:47;;;;;;;36.90;26.27;;;10.50;81.10;;;;;;4227746;33;20238;-66
2021/03/03 11:13:25;;;;;;;37.20;24.13;;;10.60;81.10;;;;;;4224601;33;20293;-66
2021/03/03 11:15:58;;;;;;;36.17;25.23;;;10.40;80.60;;;;;;4231005;33;20181;-68
2021/03/03 11:18:29;;;;;;;38.67;26.77;;;10.90;80.40;;;;;;4228232;33;20196;-68
2021/03/03 11:20:57;;;;;;;36.77;27.97;;;10.90;79.50;;;;;;4228779;33;20270;-66
2021/03/03 11:23:23;;;;;;;40.83;27.60;;;11.10;78.30;;;;;;4228090;33;20246;-68
2021/03/03 11:25:59;;;;;;;40.77;27.80;;;11.20;78.70;;;;;;4228894;33;20165;-64
2021/03/03 11:28:30;;;;;;;44.07;28.77;;;11.20;78.50;;;;;;4274393;33;20818;-67
2021/03/03 11:30:56;;;;;;;42.47;29.40;;;11.10;78.50;;;;;;4293833;33;20231;-67
2021/03/03 11:33:27;;;;;;;42.00;30.27;;;11.10;78.50;;;;;;4332022;33;20234;-66
2021/03/03 11:36:02;;;;;;;41.50;29.13;;;10.70;79.60;;;;;;4328316;33;20619;-67
2021/03/03 11:38:31;;;;;;;41.37;29.37;;;10.60;80.70;;;;;;4324130;33;20170;-65
2021/03/03 11:41:32;;;;;;;41.60;29.30;;;10.50;81.10;;;;;;4330478;33;20738;-67
2021/03/03 11:44:09;;;;;;;37.67;27.93;;;10.50;81.10;;;;;;4328662;33;20228;-66
2021/03/03 11:46:40;;;;;;;46.57;33.47;;;10.30;82.10;;;;;;4370406;32;20260;-66
2021/03/03 11:49:39;;;;;;;38.40;29.97;;;10.20;82.70;;;;;;4363720;32;20162;-65
2021/03/03 11:52:32;;;;;;;46.97;33.00;;;10.30;82.60;;;;;;4360777;32;20624;-67
2021/03/03 11:58:42;;;;;;;48.73;32.60;;;10.80;82.00;;;;;;4251843;33;20168;-65
2021/03/03 12:01:15;;;;;;;46.47;32.13;;;11.30;79.50;;;;;;4178251;34;20172;-66
2021/03/03 12:03:46;;;;;;;46.80;32.67;;;12.00;77.60;;;;;;4238191;33;20163;-66
2021/03/03 12:06:13;;;;;;;44.07;32.23;;;12.00;77.20;;;;;;4248883;33;20209;-66
2021/03/03 12:08:39;;;;;;;51.77;34.87;;;11.90;77.20;;;;;;4252386;33;20489;-67
2021/03/03 12:13:50;;;;;;;55.53;38.20;;;11.40;79.00;;;;;;4234591;33;20167;-64
2021/03/03 12:16:22;;;;;;;53.87;36.90;;;11.10;79.10;;;;;;4234456;33;20232;-65
2021/03/03 12:18:51;;;;;;;54.70;37.23;;;10.90;80.60;;;;;;4239440;33;20189;-66
2021/03/03 12:21:20;;;;;;;53.23;37.77;;;10.90;80.80;;;;;;4239501;33;20173;-65
2021/03/03 12:23:56;;;;;;;52.97;37.67;;;10.80;81.50;;;;;;4245230;33;20250;-67
2021/03/03 12:26:28;;;;;;;59.00;37.23;;;11.10;81.20;;;;;;4245001;33;20535;-68
2021/03/03 12:29:05;;;;;;;54.93;38.17;;;11.10;81.10;;;;;;4246049;33;20163;-65
2021/03/03 12:31:56;;;;;;;50.97;36.80;;;10.90;81.00;;;;;;4245480;33;22120;-66
2021/03/03 12:34:30;;;;;;;57.23;40.10;;;11.00;81.40;;;;;;4269619;32;20179;-67
2021/03/03 12:37:01;;;;;;;52.57;38.67;;;10.80;81.80;;;;;;4360916;32;20171;-66
2021/03/03 12:39:31;;;;;;;57.50;39.67;;;10.80;82.00;;;;;;4363307;32;20233;-66
2021/03/03 12:45:03;;;;;;;;;;;;;;;;;;;;;
2021/03/03 12:47:40;;;;;;;58.57;39.43;;;10.90;82.40;;;;;;4359351;32;20323;-68
2021/03/03 12:50:17;;;;;;;63.90;42.43;;;10.90;82.50;;;;;;4352409;32;20205;-66
2021/03/03 12:52:51;;;;;;;65.83;41.57;;;11.00;82.40;;;;;;4348286;32;20252;-66
2021/03/03 12:55:23;;;;;;;58.87;40.00;;;11.10;81.50;;;;;;4355630;32;20460;-67
2021/03/03 12:58:06;;;;;;;59.47;41.30;;;11.20;81.70;;;;;;4349124;32;20157;-66
2021/03/03 13:00:34;;;;;;;66.17;42.30;;;11.30;81.40;;;;;;4349270;32;20678;-66
2021/03/03 13:03:13;;;;;;;63.83;42.30;;;11.30;81.10;;;;;;4348858;32;20179;-66
2021/03/03 13:05:43;;;;;;;63.47;41.77;;;11.30;81.30;;;;;;4349023;32;20498;-67
2021/03/03 13:08:15;;;;;;;60.80;41.50;;;11.30;81.20;;;;;;4349442;32;20179;-67
2021/03/03 13:10:42;;;;;;;64.40;41.40;;;11.20;81.40;;;;;;4350313;32;20665;-66
2021/03/03 13:13:15;;;;;;;61.40;41.70;;;11.10;81.80;;;;;;4342535;33;20319;-66
2021/03/03 13:15:50;;;;;;;66.17;43.67;;;11.00;82.40;;;;;;4358359;32;20240;-65
2021/03/03 13:18:19;;;;;;;66.00;44.53;;;11.10;81.90;;;;;;4373636;32;20175;-68
2021/03/03 13:20:52;;;;;;;66.23;43.30;;;10.90;82.40;;;;;;4366480;32;20796;-67
2021/03/03 13:23:22;;;;;;;67.17;44.47;;;11.10;82.40;;;;;;4371956;32;20173;-65
2021/03/03 13:28:45;;;;;;;63.00;42.33;;;11.00;82.10;;;;;;4369346;32;20250;-67
2021/03/03 13:31:23;;;;;;;68.67;43.93;;;11.20;82.30;;;;;;4368760;32;20222;-69
2021/03/03 13:34:07;;;;;;;71.10;46.10;;;11.20;82.00;;;;;;4369576;32;20155;-68
2021/03/03 13:37:02;;;;;;;69.07;44.63;;;11.10;81.70;;;;;;4370294;32;20195;-67
2021/03/03 13:39:33;;;;;;;69.13;45.40;;;11.00;82.00;;;;;;4363438;32;20140;-65
2021/03/03 13:45:05;;;;;;;66.60;44.70;;;10.70;82.80;;;;;;4375591;32;20156;-67